Time;durP1;ratioP1;P1;durP2;ratioP2;P2;SDS_P1;SDS_P2;PMS_P1;PMS_P2;Temp;Humidity;BMP_temperature;BMP_pressure;BME280_temperature;BME280_humidity;BME280_pressure;Samples;Min_cycle;Max_cycle;Signal;HPM_P1;HPM_P2
2022/07/14 00:02:07;;;;;;;;;24.50;20.75;;;;;27.26;68.51;101506.09;4926452;28;44840;-90
2022/07/14 00:04:32;;;;;;;;;14.00;14.00;;;;;27.24;68.59;101505.44;4926984;28;44848;-91
2022/07/14 00:06:58;;;;;;;;;22.75;19.75;;;;;27.25;68.33;101505.25;4925346;28;45117;-90
2022/07/14 00:09:23;;;;;;;;;21.25;19.00;;;;;27.24;67.94;101506.28;4925003;28;45007;-90
2022/07/14 00:11:49;;;;;;;;;24.00;20.50;;;;;27.23;69.46;101504.59;4928389;28;44683;-91
2022/07/14 00:14:14;;;;;;;;;17.25;16.50;;;;;27.23;69.69;101509.22;4926899;28;44996;-90
2022/07/14 00:16:53;;;;;;;;;10.25;10.25;;;;;27.22;69.44;101507.50;4925042;28;45377;-91
2022/07/14 00:19:18;;;;;;;;;15.20;15.20;;;;;27.20;69.38;101504.97;4926181;28;44921;-91
2022/07/14 00:21:44;;;;;;;;;17.50;16.75;;;;;27.24;68.77;101500.84;4940135;28;44816;-90
2022/07/14 00:24:11;;;;;;;;;18.50;15.50;;;;;27.21;68.70;101495.75;4946876;28;44932;-90
2022/07/14 00:26:39;;;;;;;;;24.50;22.50;;;;;27.24;69.60;101498.09;4951185;28;45373;-92
2022/07/14 00:29:08;;;;;;;;;27.25;22.00;;;;;27.21;69.33;101490.28;4952741;28;44640;-91
2022/07/14 00:31:34;;;;;;;;;28.00;24.75;;;;;27.23;68.21;101480.06;4949775;28;44842;-91
2022/07/14 00:34:00;;;;;;;;;26.50;24.25;;;;;27.19;60.97;101477.91;4945330;28;44822;-91
2022/07/14 00:36:27;;;;;;;;;28.75;25.50;;;;;27.18;62.55;101468.88;4947317;28;45263;-91
2022/07/14 00:38:56;;;;;;;;;24.75;23.00;;;;;27.13;68.87;101458.53;4947970;28;44768;-90
2022/07/14 00:41:23;;;;;;;;;26.50;23.25;;;;;27.16;69.41;101454.56;4948982;28;44748;-90
2022/07/14 00:43:49;;;;;;;;;24.25;23.00;;;;;27.16;69.07;101457.28;4945269;28;44853;-91
2022/07/14 00:46:15;;;;;;;;;33.50;27.25;;;;;27.11;69.71;101448.84;4942419;28;45437;-90
2022/07/14 00:48:40;;;;;;;;;27.25;23.25;;;;;27.11;69.76;101462.50;4943555;28;44796;-91
2022/07/14 00:51:07;;;;;;;;;26.25;23.75;;;;;27.09;69.70;101462.69;4946351;28;44776;-91
2022/07/14 00:53:33;;;;;;;;;29.25;24.00;;;;;27.05;69.32;101455.91;4957433;28;44816;-90
2022/07/14 00:55:59;;;;;;;;;28.00;24.25;;;;;27.05;69.16;101466.81;4927157;28;45402;-91
2022/07/14 00:58:24;;;;;;;;;26.75;24.50;;;;;27.04;68.44;101470.59;4928800;28;44562;-91
2022/07/14 01:00:50;;;;;;;;;29.50;26.50;;;;;27.00;71.00;101458.34;4927195;28;44654;-91
2022/07/14 01:03:18;;;;;;;;;22.50;21.50;;;;;27.00;70.49;101460.25;4925627;28;44824;-88
2022/07/14 01:05:43;;;;;;;;;26.25;25.25;;;;;26.97;70.92;101455.16;4924412;28;45443;-91
2022/07/14 01:08:09;;;;;;;;;22.00;20.00;;;;;26.94;71.26;101459.16;4925869;28;44915;-91
2022/07/14 01:10:35;;;;;;;;;24.25;23.00;;;;;26.92;73.03;101477.56;4926097;28;44780;-90
2022/07/14 01:13:04;;;;;;;;;27.25;23.25;;;;;26.86;73.55;101478.34;4928851;28;44970;-91
2022/07/14 01:15:31;;;;;;;;;20.25;20.25;;;;;26.81;75.67;101472.63;4936203;28;45161;-90
2022/07/14 01:17:57;;;;;;;;;20.25;18.00;;;;;26.79;74.46;101480.16;4950192;28;44701;-91
2022/07/14 01:20:23;;;;;;;;;25.25;23.00;;;;;26.77;75.65;101471.31;4940193;28;44800;-91
2022/07/14 01:22:49;;;;;;;;;21.25;19.00;;;;;26.71;83.25;101472.91;4928136;28;44773;-90
2022/07/14 01:25:16;;;;;;;;;17.25;16.25;;;;;26.69;82.10;101475.00;4927459;28;44931;-90
2022/07/14 01:27:42;;;;;;;;;16.80;14.80;;;;;26.66;85.76;101480.81;4926757;28;44792;-90
2022/07/14 01:30:10;;;;;;;;;21.00;18.75;;;;;26.63;87.13;101475.75;4926185;28;44864;-89
2022/07/14 01:32:36;;;;;;;;;16.50;14.75;;;;;26.59;88.25;101485.31;4932059;28;44747;-91
2022/07/14 01:35:06;;;;;;;;;26.00;18.25;;;;;26.53;88.63;101480.66;4932426;28;45355;-91
2022/07/14 01:37:32;;;;;;;;;20.25;20.00;;;;;26.53;89.63;101486.94;4946355;28;44796;-91
2022/07/14 01:40:00;;;;;;;;;22.00;20.25;;;;;26.51;89.37;101486.28;4928575;28;44884;-91
2022/07/14 01:42:26;;;;;;;;;30.00;22.75;;;;;26.42;90.05;101494.72;4926672;28;44931;-87
2022/07/14 01:44:52;;;;;;;;;19.25;19.25;;;;;26.26;89.30;101482.13;4924157;28;45371;-86
2022/07/14 01:47:17;;;;;;;;;21.00;18.00;;;;;26.18;89.13;101484.94;4928578;28;45076;-88
2022/07/14 01:49:43;;;;;;;;;20.50;16.25;;;;;26.15;89.52;101477.97;4929150;28;44623;-87
2022/07/14 01:52:08;;;;;;;;;15.50;14.25;;;;;26.04;89.69;101471.13;4923624;28;44801;-87
2022/07/14 01:54:34;;;;;;;;;15.50;15.00;;;;;25.92;91.06;101483.50;4908228;28;45135;-87
2022/07/14 01:56:59;;;;;;;;;14.50;13.50;;;;;25.79;92.32;101478.69;4907677;28;44806;-87
2022/07/14 01:59:25;;;;;;;;;16.25;12.50;;;;;25.69;92.41;101480.78;4908105;28;45280;-88
2022/07/14 02:01:51;;;;;;;;;14.00;12.75;;;;;25.68;92.57;101479.09;4905920;28;44825;-88
2022/07/14 02:04:20;;;;;;;;;13.50;12.25;;;;;25.58;92.57;101473.06;4922431;28;45222;-88
2022/07/14 02:06:45;;;;;;;;;12.60;10.40;;;;;25.50;92.88;101473.13;4909000;28;44722;-87
2022/07/14 02:09:11;;;;;;;;;12.00;10.75;;;;;25.34;93.24;101464.09;4907680;28;45218;-87
2022/07/14 02:14:22;;;;;;;;;6.80;6.80;;;;;25.24;93.00;101465.31;4908828;29;45048;-87
2022/07/14 02:16:48;;;;;;;;;12.25;9.00;;;;;25.12;93.39;101462.19;4925768;28;45270;-87
2022/07/14 02:19:17;;;;;;;;;6.50;6.50;;;;;25.05;94.46;101462.03;4912083;29;44953;-91
2022/07/14 02:21:46;;;;;;;;;5.00;5.00;;;;;25.02;94.17;101450.66;4918100;29;44935;-92
2022/07/14 02:24:13;;;;;;;;;6.40;5.00;;;;;25.02;94.01;101456.13;4931939;28;46809;-92
2022/07/14 02:26:41;;;;;;;;;10.80;8.60;;;;;24.94;94.93;101453.44;4905676;29;44709;-92
2022/07/14 02:29:07;;;;;;;;;8.80;7.80;;;;;24.86;94.85;101459.78;4942576;28;44852;-93
2022/07/14 02:31:34;;;;;;;;;8.25;6.25;;;;;24.81;95.51;101452.16;4945338;28;44860;-91
2022/07/14 02:34:07;;;;;;;;;6.20;5.60;;;;;24.86;95.72;101448.91;4928957;28;45311;-91
2022/07/14 02:36:32;;;;;;;;;9.25;9.25;;;;;24.79;95.94;101448.75;4899970;29;44892;-87
2022/07/14 02:38:58;;;;;;;;;8.25;7.00;;;;;24.78;95.89;101455.22;4906642;28;44865;-86
2022/07/14 02:41:23;;;;;;;;;8.50;7.75;;;;;24.76;96.31;101451.00;4906520;28;44810;-86
2022/07/14 02:43:49;;;;;;;;;10.25;8.25;;;;;24.72;96.96;101445.06;4922044;28;45184;-86
2022/07/14 02:46:14;;;;;;;;;12.50;8.00;;;;;24.70;96.92;101435.41;4902933;29;45239;-87
2022/07/14 02:48:40;;;;;;;;;10.00;8.25;;;;;24.74;96.92;101440.28;4904255;28;44878;-87
2022/07/14 02:51:08;;;;;;;;;8.75;7.50;;;;;24.71;98.16;101437.06;4905721;29;44791;-86
2022/07/14 02:53:35;;;;;;;;;10.80;10.80;;;;;24.64;100.00;101442.38;4906038;29;45436;-86
2022/07/14 02:56:09;;;;;;;;;9.80;9.00;;;;;24.60;100.00;101432.91;4903790;29;44950;-86
2022/07/14 02:58:36;;;;;;;;;7.80;7.00;;;;;24.56;100.00;101439.69;4904704;29;44833;-86
2022/07/14 03:01:06;;;;;;;;;9.00;7.00;;;;;24.53;100.00;101435.50;4904673;29;44747;-86
2022/07/14 03:03:34;;;;;;;;;8.00;6.80;;;;;24.49;100.00;101444.16;4902162;29;45243;-86
2022/07/14 03:06:07;;;;;;;;;7.60;6.80;;;;;24.43;100.00;101445.72;4905593;29;45402;-85
2022/07/14 03:08:32;;;;;;;;;6.80;6.80;;;;;24.35;100.00;101445.72;4904789;29;44711;-86
2022/07/14 03:10:57;;;;;;;;;6.25;6.25;;;;;24.31;100.00;101434.34;4904577;29;44977;-86
2022/07/14 03:13:23;;;;;;;;;8.00;7.00;;;;;24.30;100.00;101434.53;4886102;29;46834;-86
2022/07/14 03:15:48;;;;;;;;;8.50;8.00;;;;;24.34;100.00;101435.88;4906875;29;44643;-86
2022/07/14 03:18:14;;;;;;;;;7.00;7.00;;;;;24.27;100.00;101435.75;4888619;29;45314;-87
2022/07/14 03:20:39;;;;;;;;;8.50;7.00;;;;;24.23;100.00;101437.13;4907296;29;44717;-85
2022/07/14 03:23:04;;;;;;;;;6.00;5.00;;;;;24.26;100.00;101436.75;4928258;28;45405;-86
2022/07/14 03:25:30;;;;;;;;;9.25;6.50;;;;;24.30;100.00;101434.53;4935021;28;44840;-84
2022/07/14 03:27:56;;;;;;;;;8.00;6.00;;;;;24.29;100.00;101430.13;4927829;28;44785;-86
2022/07/14 03:30:22;;;;;;;;;7.75;7.00;;;;;24.20;100.00;101445.59;4921727;28;45488;-86
2022/07/14 03:32:47;;;;;;;;;9.50;9.50;;;;;24.08;100.00;101442.41;4904226;28;45528;-86
2022/07/14 03:35:13;;;;;;;;;9.75;6.50;;;;;24.01;100.00;101441.41;4921737;28;44826;-87
2022/07/14 03:37:38;;;;;;;;;10.00;9.25;;;;;23.90;100.00;101435.50;4921966;28;44829;-87
2022/07/14 03:40:07;;;;;;;;;9.50;8.25;;;;;23.94;100.00;101437.69;4922648;28;45316;-87
2022/07/14 03:42:32;;;;;;;;;7.40;7.20;;;;;23.96;100.00;101443.78;4921333;28;44980;-86
2022/07/14 03:44:58;;;;;;;;;10.00;8.50;;;;;23.97;100.00;101436.50;4921533;28;45330;-86
2022/07/14 03:47:23;;;;;;;;;8.25;6.25;;;;;23.99;100.00;101431.75;4906252;28;44851;-87
2022/07/14 03:49:49;;;;;;;;;9.00;7.25;;;;;23.98;100.00;101435.47;4952392;28;44895;-86
2022/07/14 03:52:15;;;;;;;;;6.75;4.50;;;;;23.92;100.00;101423.44;4942561;28;45019;-86
2022/07/14 03:54:48;;;;;;;;;7.25;7.25;;;;;23.85;100.00;101426.00;4955961;28;44810;-87
2022/07/14 03:57:14;;;;;;;;;12.80;11.00;;;;;23.77;100.00;101438.75;4941777;28;45247;-87
2022/07/14 03:59:40;;;;;;;;;9.20;7.80;;;;;23.72;100.00;101441.13;4939781;28;45470;-86
2022/07/14 04:02:10;;;;;;;;;8.80;8.80;;;;;23.67;100.00;101435.38;4939418;28;45070;-86
2022/07/14 04:04:36;;;;;;;;;9.20;8.80;;;;;23.64;100.00;101431.13;4942908;28;44652;-86
2022/07/14 04:07:02;;;;;;;;;9.75;9.75;;;;;23.66;100.00;101442.66;4949455;28;44707;-86
2022/07/14 04:09:28;;;;;;;;;8.50;8.25;;;;;23.64;100.00;101438.41;4945598;28;44859;-87
2022/07/14 04:11:53;;;;;;;;;8.50;8.50;;;;;23.60;100.00;101440.59;4946631;28;45466;-86
2022/07/14 04:14:19;;;;;;;;;9.00;8.50;;;;;23.61;100.00;101436.88;4943269;28;44771;-87
2022/07/14 04:16:44;;;;;;;;;9.25;8.75;;;;;23.60;100.00;101438.72;4941222;28;44855;-87
2022/07/14 04:19:10;;;;;;;;;7.50;6.00;;;;;23.58;100.00;101435.31;4943916;28;44851;-88
2022/07/14 04:21:36;;;;;;;;;9.50;8.50;;;;;23.64;100.00;101441.13;4944637;28;45023;-87
2022/07/14 04:24:03;;;;;;;;;9.20;7.60;;;;;23.64;100.00;101438.41;4947714;28;44846;-87
2022/07/14 04:26:29;;;;;;;;;7.40;6.00;;;;;23.61;100.00;101445.00;4948851;28;45178;-87
2022/07/14 04:28:55;;;;;;;;;8.25;8.25;;;;;23.51;100.00;101433.50;4948262;28;44923;-86
2022/07/14 04:31:20;;;;;;;;;4.50;4.50;;;;;23.49;100.00;101440.94;4950161;28;45465;-86
2022/07/14 04:33:46;;;;;;;;;6.75;6.75;;;;;23.47;100.00;101443.81;4951955;28;44803;-85
2022/07/14 04:36:11;;;;;;;;;13.25;9.75;;;;;23.47;100.00;101449.25;4949534;28;44685;-86
2022/07/14 04:38:37;;;;;;;;;7.75;7.50;;;;;23.45;100.00;101447.72;4949687;28;44890;-87
2022/07/14 04:41:03;;;;;;;;;5.25;5.25;;;;;23.48;100.00;101450.09;4956901;28;44992;-86
2022/07/14 04:43:28;;;;;;;;;10.50;8.25;;;;;23.51;100.00;101447.91;4958436;28;44719;-86
2022/07/14 04:45:54;;;;;;;;;11.00;8.00;;;;;23.47;100.00;101449.25;4957721;28;44660;-86
2022/07/14 04:48:19;;;;;;;;;9.75;8.00;;;;;23.52;100.00;101449.59;4952879;28;44729;-86
2022/07/14 04:53:29;;;;;;;;;9.20;7.00;;;;;23.65;100.00;101456.41;4955672;28;44748;-86
2022/07/14 04:55:55;;;;;;;;;9.25;8.25;;;;;23.81;100.00;101451.78;4943232;28;44745;-87
2022/07/14 04:58:21;;;;;;;;;10.25;8.50;;;;;24.00;100.00;101457.88;4938393;28;44924;-86
2022/07/14 05:00:47;;;;;;;;;6.60;6.00;;;;;24.00;100.00;101461.44;4937326;28;45323;-86
2022/07/14 05:03:13;;;;;;;;;9.60;8.00;;;;;24.14;100.00;101459.03;4939705;28;44749;-86
2022/07/14 05:05:39;;;;;;;;;5.00;5.00;;;;;24.31;100.00;101450.63;4942332;28;45007;-87
2022/07/14 05:08:05;;;;;;;;;10.00;9.20;;;;;24.34;100.00;101450.31;4942338;28;44664;-87
2022/07/14 05:10:30;;;;;;;;;9.25;9.25;;;;;24.33;100.00;101445.91;4937831;28;45643;-87
2022/07/14 05:12:56;;;;;;;;;9.25;9.25;;;;;24.30;100.00;101453.53;4940831;28;44666;-87
2022/07/14 05:15:22;;;;;;;;;10.00;10.00;;;;;24.33;100.00;101450.50;4934729;28;44838;-87
2022/07/14 05:17:47;;;;;;;;;8.00;8.00;;;;;24.31;100.00;101444.38;4933944;28;44848;-86
2022/07/14 05:20:13;;;;;;;;;11.50;10.00;;;;;24.30;100.00;101453.53;4938027;28;45086;-87
2022/07/14 05:22:40;;;;;;;;;13.75;9.75;;;;;24.34;100.00;101460.31;4935945;28;44792;-88
2022/07/14 05:25:10;;;;;;;;;7.80;7.80;;;;;24.36;100.00;101458.28;4933406;28;44712;-87
2022/07/14 05:27:37;;;;;;;;;10.25;10.25;;;;;24.44;100.00;101452.84;4933147;28;44870;-87
2022/07/14 05:30:04;;;;;;;;;12.80;11.00;;;;;24.52;100.00;101449.25;4930650;28;46520;-88
2022/07/14 05:32:30;;;;;;;;;9.40;9.40;;;;;24.47;100.00;101449.78;4930922;28;44825;-87
2022/07/14 05:34:56;;;;;;;;;10.50;9.50;;;;;24.40;100.00;101450.66;4930724;28;44916;-87
2022/07/14 05:37:22;;;;;;;;;9.25;9.25;;;;;24.35;100.00;101459.28;4928379;28;45442;-87
2022/07/14 05:39:47;;;;;;;;;9.50;8.50;;;;;24.19;100.00;101452.06;4933782;28;45002;-88
2022/07/14 05:42:13;;;;;;;;;11.75;9.25;;;;;24.15;100.00;101452.56;4933420;28;44835;-86
2022/07/14 05:44:38;;;;;;;;;13.00;12.00;;;;;24.03;100.00;101454.78;4925412;28;44784;-88
2022/07/14 05:47:04;;;;;;;;;10.25;9.50;;;;;24.05;100.00;101448.19;4924479;28;44785;-87
2022/07/14 05:49:30;;;;;;;;;11.20;9.80;;;;;24.10;100.00;101448.50;4926003;28;45610;-88
2022/07/14 05:51:55;;;;;;;;;12.75;10.75;;;;;24.19;100.00;101448.50;4924982;28;44824;-87
2022/07/14 05:54:21;;;;;;;;;11.00;11.00;;;;;24.29;100.00;101454.56;4924785;28;45223;-87
2022/07/14 05:56:46;;;;;;;;;10.25;8.50;;;;;24.46;100.00;101453.50;4946324;28;44911;-88
2022/07/14 05:59:11;;;;;;;;;9.75;9.75;;;;;24.53;100.00;101450.94;4946185;28;45162;-87
2022/07/14 06:01:37;;;;;;;;;12.75;9.25;;;;;24.63;100.00;101467.03;4948918;28;45219;-88
2022/07/14 06:04:03;;;;;;;;;10.75;10.25;;;;;25.02;100.00;101467.00;4954840;28;44827;-86
2022/07/14 06:06:28;;;;;;;;;11.25;10.00;;;;;25.11;100.00;101471.38;4961856;28;44919;-87
2022/07/14 06:08:54;;;;;;;;;12.25;11.25;;;;;25.29;100.00;101452.91;4952170;28;45294;-88
2022/07/14 06:11:19;;;;;;;;;9.25;9.25;;;;;25.34;100.00;101455.06;4945172;28;44816;-87
2022/07/14 06:13:45;;;;;;;;;11.25;9.75;;;;;25.49;100.00;101452.41;4943895;28;44725;-87
2022/07/14 06:16:13;;;;;;;;;11.60;9.80;;;;;25.33;100.00;101459.66;4940435;28;44965;-88
2022/07/14 06:18:38;;;;;;;;;9.25;8.50;;;;;24.97;100.00;101472.97;4943863;28;44898;-87
2022/07/14 06:21:08;;;;;;;;;9.75;9.25;;;;;25.05;100.00;101469.34;4946527;28;44767;-87
2022/07/14 06:23:35;;;;;;;;;8.80;6.40;;;;;25.16;100.00;101466.25;4947460;28;44766;-87
2022/07/14 06:26:11;;;;;;;;;10.20;9.20;;;;;25.37;100.00;101471.00;4947072;28;44851;-87
2022/07/14 06:28:36;;;;;;;;;8.00;8.00;;;;;25.63;100.00;101468.78;4951363;28;45617;-87
2022/07/14 06:31:02;;;;;;;;;8.50;8.50;;;;;25.67;100.00;101466.50;4966240;28;44828;-88
2022/07/14 06:33:28;;;;;;;;;7.75;5.75;;;;;25.27;100.00;101468.53;4948593;28;45382;-87
2022/07/14 06:35:53;;;;;;;;;9.00;9.00;;;;;25.06;100.00;101480.03;4947295;28;44782;-88
2022/07/14 06:38:19;;;;;;;;;7.50;7.50;;;;;24.82;100.00;101477.47;4946047;28;45203;-87
2022/07/14 06:40:44;;;;;;;;;10.50;9.00;;;;;25.03;100.00;101474.94;4945764;28;44704;-87
2022/07/14 06:43:10;;;;;;;;;11.25;10.25;;;;;24.86;100.00;101482.38;4947771;28;44729;-87
2022/07/14 06:45:35;;;;;;;;;6.25;5.25;;;;;24.66;100.00;101475.69;4947604;28;44923;-87
2022/07/14 06:48:01;;;;;;;;;11.00;9.25;;;;;24.71;100.00;101480.56;4945104;28;46215;-88
2022/07/14 06:50:26;;;;;;;;;7.50;7.50;;;;;24.68;100.00;101475.50;4947752;28;44693;-87
2022/07/14 06:52:51;;;;;;;;;12.25;11.75;;;;;24.70;100.00;101478.88;4942044;28;45180;-87
2022/07/14 06:55:17;;;;;;;;;8.25;8.25;;;;;24.56;100.00;101484.06;4941738;28;44912;-87
2022/07/14 06:57:43;;;;;;;;;11.75;10.50;;;;;24.53;100.00;101475.41;4941948;28;45182;-86
2022/07/14 07:00:09;;;;;;;;;12.50;8.75;;;;;24.81;100.00;101479.34;4944112;28;44684;-87
2022/07/14 07:02:36;;;;;;;;;11.80;9.20;;;;;24.98;100.00;101468.38;4947163;28;44912;-86
2022/07/14 07:07:51;;;;;;;;;11.20;10.20;;;;;25.59;100.00;101470.16;4953529;28;44880;-87
2022/07/14 07:10:17;;;;;;;;;12.20;11.40;;;;;25.78;100.00;101473.44;4946593;28;44747;-87
2022/07/14 07:12:42;;;;;;;;;12.25;9.25;;;;;25.94;100.00;101486.88;4942503;28;44794;-87
2022/07/14 07:15:08;;;;;;;;;12.50;12.00;;;;;25.56;100.00;101475.13;4945235;28;44794;-87
2022/07/14 07:17:34;;;;;;;;;13.75;12.50;;;;;25.23;100.00;101485.41;4947501;28;47016;-86
2022/07/14 07:20:00;;;;;;;;;14.25;12.00;;;;;25.15;100.00;101477.31;4946647;28;44742;-88
2022/07/14 07:22:26;;;;;;;;;12.40;9.80;;;;;25.14;100.00;101479.16;4941907;28;44920;-87
2022/07/14 07:24:51;;;;;;;;;10.75;9.50;;;;;25.38;100.00;101478.16;4940508;28;44800;-87
2022/07/14 07:27:16;;;;;;;;;11.75;10.50;;;;;25.35;100.00;101484.81;4939949;28;45075;-87
2022/07/14 07:29:42;;;;;;;;;13.25;12.00;;;;;25.61;100.00;101476.25;4940888;28;44831;-86
2022/07/14 07:32:08;;;;;;;;;8.75;8.75;;;;;25.85;100.00;101477.09;4953385;28;44831;-88
2022/07/14 07:34:36;;;;;;;;;12.00;10.75;;;;;25.94;100.00;101480.59;4948383;28;44840;-87
2022/07/14 07:37:03;;;;;;;;;9.40;9.40;;;;;26.41;100.00;101477.53;4942769;28;45414;-87
2022/07/14 07:39:29;;;;;;;;;11.20;7.80;;;;;26.45;100.00;101476.16;4939372;28;44679;-87
2022/07/14 07:41:57;;;;;;;;;12.25;12.25;;;;;25.75;100.00;101480.09;4942274;28;44731;-87
2022/07/14 07:44:23;;;;;;;;;13.50;12.50;;;;;25.57;100.00;101488.53;4941052;28;44700;-87
2022/07/14 07:46:50;;;;;;;;;10.75;10.75;;;;;25.52;100.00;101473.78;4945056;28;44915;-88
2022/07/14 07:49:18;;;;;;;;;12.60;11.80;;;;;25.38;100.00;101472.69;4956231;28;45107;-88
2022/07/14 07:51:43;;;;;;;;;12.60;9.40;;;;;25.59;100.00;101472.03;4959487;28;44767;-89
2022/07/14 07:54:09;;;;;;;;;8.25;8.25;;;;;25.71;100.00;101475.16;4954115;28;44835;-89
2022/07/14 07:56:34;;;;;;;;;11.50;11.50;;;;;25.87;100.00;101466.88;4947353;28;45049;-90
2022/07/14 07:59:01;;;;;;;;;14.75;11.75;;;;;25.91;100.00;101475.50;4930201;28;44779;-91
2022/07/14 08:01:28;;;;;;;;;11.80;10.60;;;;;25.52;100.00;101476.50;4930265;28;45300;-90
2022/07/14 08:03:53;;;;;;;;;10.20;10.20;;;;;25.55;100.00;101468.00;4950673;28;44840;-90
2022/07/14 08:06:19;;;;;;;;;12.75;12.25;;;;;25.81;100.00;101468.44;4936204;28;45074;-88
2022/07/14 08:08:44;;;;;;;;;10.25;10.25;;;;;25.78;100.00;101477.00;4932828;28;44635;-89
2022/07/14 08:11:09;;;;;;;;;12.75;11.00;;;;;25.94;100.00;101484.16;4930659;28;44695;-90
2022/07/14 08:13:36;;;;;;;;;11.50;11.50;;;;;25.82;100.00;101480.19;4932208;28;45040;-89
2022/07/14 08:16:01;;;;;;;;;11.50;10.00;;;;;25.78;100.00;101471.56;4932675;28;44939;-88
2022/07/14 08:18:27;;;;;;;;;8.50;8.50;;;;;25.81;100.00;101473.06;4947038;28;44607;-91
2022/07/14 08:20:52;;;;;;;;;11.50;10.25;;;;;25.89;100.00;101476.53;4929834;28;44901;-90
2022/07/14 08:23:19;;;;;;;;;11.25;7.50;;;;;26.02;100.00;101465.03;4926749;28;44943;-90
2022/07/14 08:25:44;;;;;;;;;9.60;9.60;;;;;26.13;100.00;101456.38;4940034;28;45446;-90
2022/07/14 08:28:10;;;;;;;;;12.50;10.00;;;;;26.44;100.00;101465.41;4949729;28;44844;-91
2022/07/14 08:30:36;;;;;;;;;10.50;8.00;;;;;26.46;100.00;101464.22;4946216;28;44786;-91
2022/07/14 08:33:01;;;;;;;;;9.25;8.25;;;;;26.32;100.00;101456.84;4962382;28;44871;-91
2022/07/14 08:35:27;;;;;;;;;13.00;10.25;;;;;26.37;100.00;101466.16;4949224;28;46754;-90
2022/07/14 08:37:55;;;;;;;;;10.75;10.75;;;;;26.13;100.00;101461.84;4947961;28;44832;-91
2022/07/14 08:40:25;;;;;;;;;11.40;10.60;;;;;25.88;100.00;101453.06;4951916;28;44699;-89
2022/07/14 08:42:52;;;;;;;;;10.40;9.20;;;;;26.29;100.00;101457.22;4952260;28;44888;-90
2022/07/14 08:45:20;;;;;;;;;9.60;9.60;;;;;26.36;100.00;101450.84;4951025;28;44999;-89
2022/07/14 08:47:46;;;;;;;;;10.40;10.00;;;;;26.55;99.93;101456.78;4950705;28;44733;-91
2022/07/14 08:50:17;;;;;;;;;9.40;8.80;;;;;26.20;100.00;101467.38;4948846;28;44667;-91
2022/07/14 08:52:44;;;;;;;;;5.60;5.60;;;;;26.03;100.00;101460.41;4956245;28;44731;-90
2022/07/14 08:55:11;;;;;;;;;6.40;6.40;;;;;26.06;100.00;101462.75;4956442;28;45243;-92
2022/07/14 09:05:24;;;;;;;;;11.40;11.40;;;;;26.44;98.96;101459.97;4062641;23;45110;-91
2022/07/14 09:07:56;;;;;;;;;12.80;12.00;;;;;26.72;97.86;101468.31;4900848;29;44665;-92
2022/07/14 09:10:25;;;;;;;;;17.20;15.20;;;;;26.82;98.43;101463.38;4929256;28;44747;-91
2022/07/14 09:12:50;;;;;;;;;10.25;10.25;;;;;26.85;98.64;101463.03;4912234;28;44708;-91
2022/07/14 09:18:04;;;;;;;;;9.20;8.00;;;;;26.54;92.09;101474.16;4913170;29;44564;-92
2022/07/14 09:20:36;;;;;;;;;5.40;5.00;;;;;26.71;93.25;101470.19;4905738;29;44743;-91
2022/07/14 09:23:03;;;;;;;;;10.20;10.20;;;;;26.61;92.89;101477.81;4911462;29;45227;-89
2022/07/14 09:25:34;;;;;;;;;4.00;4.00;;;;;26.81;88.33;101458.97;4912642;29;46966;-90
2022/07/14 09:28:00;;;;;;;;;10.80;9.80;;;;;26.87;90.97;101458.19;4916518;29;44642;-91
2022/07/14 09:30:26;;;;;;;;;7.40;5.80;;;;;26.87;90.71;101461.78;4921191;29;44563;-90
2022/07/14 09:32:56;;;;;;;;;8.00;8.00;;;;;27.03;90.85;101451.66;4920097;29;44785;-91
2022/07/14 09:35:36;;;;;;;;;6.80;6.80;;;;;27.17;89.85;101439.88;4902890;29;45305;-90
2022/07/14 09:38:31;;;;;;;;;5.80;5.80;;;;;27.33;84.35;101446.97;4925568;28;44719;-91
2022/07/14 09:41:08;;;;;;;;;7.00;6.40;;;;;27.42;85.50;101451.28;4910747;28;44719;-90
2022/07/14 09:43:34;;;;;;;;;4.60;3.40;;;;;27.62;84.86;101451.44;4911681;29;44716;-90
2022/07/14 09:45:59;;;;;;;;;6.50;6.50;;;;;27.67;82.05;101454.41;4924273;28;45205;-91
2022/07/14 09:48:25;;;;;;;;;8.00;6.75;;;;;27.48;83.02;101474.19;4909541;29;44721;-89
2022/07/14 09:50:57;;;;;;;;;5.50;4.50;;;;;27.60;85.28;101457.06;4907787;29;44757;-91
2022/07/14 09:53:27;;;;;;;;;5.60;5.60;;;;;27.61;83.94;101458.78;4924853;29;44840;-91
2022/07/14 09:55:57;;;;;;;;;10.00;8.60;;;;;27.65;83.91;101464.69;4900217;29;46642;-92
2022/07/14 09:58:25;;;;;;;;;10.00;8.00;;;;;27.65;82.14;101454.59;4915066;29;44612;-91
2022/07/14 10:01:08;;;;;;;;;6.60;6.40;;;;;27.76;82.93;101452.44;4915303;29;44797;-91
2022/07/14 10:03:35;;;;;;;;;7.00;6.20;;;;;27.97;80.59;101452.34;4902001;29;44926;-93
2022/07/14 10:06:03;;;;;;;;;9.60;8.40;;;;;27.80;76.71;101456.41;4884352;29;45245;-91
2022/07/14 10:08:35;;;;;;;;;4.20;4.20;;;;;27.67;79.88;101465.34;4878621;29;44668;-91
2022/07/14 10:11:05;;;;;;;;;5.60;5.60;;;;;27.78;80.62;101463.97;4905218;29;44844;-91
2022/07/14 10:13:32;;;;;;;;;10.20;9.60;;;;;27.91;79.62;101462.19;4910368;29;44718;-91
2022/07/14 10:15:57;;;;;;;;;5.80;5.80;;;;;28.06;80.33;101455.78;4878195;29;46752;-92
2022/07/14 10:18:25;;;;;;;;;7.50;7.50;;;;;28.26;77.61;101458.63;4893994;29;44669;-91
2022/07/14 10:20:53;;;;;;;;;9.80;8.20;;;;;28.33;78.18;101448.56;4894372;29;44804;-90
2022/07/14 10:23:21;;;;;;;;;13.50;9.75;;;;;28.38;77.39;101448.84;4895861;29;44793;-91
2022/07/14 10:25:51;;;;;;;;;7.20;6.60;;;;;28.54;75.41;101459.44;4895719;29;45571;-92
2022/07/14 10:28:17;;;;;;;;;5.80;5.80;;;;;28.18;71.59;101454.16;4895433;29;44758;-92
2022/07/14 10:31:16;;;;;;;;;7.00;7.00;;;;;28.13;75.03;101449.28;4912912;29;45163;-91
2022/07/14 10:40:12;;;;;;;;;6.40;6.40;;;;;28.35;77.46;101455.56;4983817;23;44843;-92
2022/07/14 10:42:59;;;;;;;;;9.40;8.40;;;;;28.24;78.82;101458.84;4815832;29;44877;-92
2022/07/14 10:45:26;;;;;;;;;7.00;7.00;;;;;28.37;78.83;101449.88;4818600;29;44876;-91
2022/07/14 10:47:54;;;;;;;;;6.20;5.00;;;;;28.67;78.54;101436.75;4819203;29;45188;-90
2022/07/14 10:50:22;;;;;;;;;5.00;5.00;;;;;28.77;75.19;101452.78;4816215;29;44754;-88
2022/07/14 10:52:53;;;;;;;;;8.40;4.20;;;;;28.64;75.47;101459.91;4812410;29;44839;-89
2022/07/14 10:55:22;;;;;;;;;7.40;6.00;;;;;28.71;73.45;101457.19;4812520;29;44941;-88
2022/07/14 10:57:59;;;;;;;;;7.00;7.00;;;;;28.85;73.25;101449.88;4816619;29;45333;-89
2022/07/14 11:00:55;;;;;;;;;8.00;7.60;;;;;28.78;72.68;101463.53;4815150;29;44856;-88
2022/07/14 11:03:26;;;;;;;;;5.80;5.80;;;;;28.74;71.67;101453.22;4814423;29;45252;-89
2022/07/14 11:06:03;;;;;;;;;6.20;5.20;;;;;28.93;69.73;101450.53;4825046;29;45451;-88
2022/07/14 11:08:30;;;;;;;;;3.60;3.60;;;;;28.82;71.39;101456.63;4831535;29;45059;-88
2022/07/14 11:10:58;;;;;;;;;5.40;5.40;;;;;29.07;71.31;101440.50;4834266;29;44819;-89
2022/07/14 11:13:24;;;;;;;;;9.00;7.80;;;;;29.33;70.46;101445.16;4833296;29;45423;-88
2022/07/14 11:15:55;;;;;;;;;5.80;5.80;;;;;29.33;67.01;101447.88;4820487;29;44794;-89
2022/07/14 11:18:27;;;;;;;;;5.20;5.20;;;;;29.23;69.05;101449.38;4818652;29;46688;-89
2022/07/14 11:20:58;;;;;;;;;7.60;5.80;;;;;29.31;67.14;101450.00;4886249;29;45369;-88
2022/07/14 11:23:35;;;;;;;;;6.00;6.00;;;;;29.56;65.50;101443.94;4903472;29;44852;-88
2022/07/14 11:26:06;;;;;;;;;4.40;4.40;;;;;29.22;62.98;101461.38;4902690;29;44825;-89
2022/07/14 11:28:32;;;;;;;;;4.20;4.20;;;;;29.33;63.90;101458.84;4885772;29;46778;-87
2022/07/14 11:31:17;;;;;;;;;4.00;4.00;;;;;29.09;59.63;101460.28;4885792;29;44881;-89
2022/07/14 11:36:31;;;;;;;;;5.00;3.60;;;;;29.33;58.87;101447.06;4904719;29;44662;-88
2022/07/14 11:39:15;;;;;;;;;3.60;3.60;;;;;29.38;55.12;101461.78;4903976;28;45127;-89
2022/07/14 11:41:49;;;;;;;;;5.40;5.40;;;;;29.33;56.22;101447.88;4872218;29;45338;-88
2022/07/14 11:44:36;;;;;;;;;5.20;4.40;;;;;29.12;58.49;101443.44;4871028;29;44704;-88